createdAt,value
2022-11-10T00:02:16.371Z,23.65
2022-11-10T00:05:40.652Z,22.15
2022-11-10T00:09:04.653Z,22.70
2022-11-10T00:12:28.778Z,21.80
2022-11-10T00:16:11.806Z,21.92
2022-11-10T00:19:36.122Z,23.02
2022-11-10T00:23:00.935Z,21.45
2022-11-10T00:26:25.510Z,19.38
2022-11-10T00:29:49.666Z,20.90
2022-11-10T00:33:13.790Z,23.38
2022-11-10T00:36:38.206Z,23.08
2022-11-10T00:40:02.503Z,21.55
2022-11-10T00:43:26.898Z,22.67
2022-11-10T00:46:51.537Z,22.55
2022-11-10T00:50:16.241Z,24.35
2022-11-10T00:53:40.395Z,24.20
2022-11-10T00:57:05.016Z,23.20
2022-11-10T01:00:29.091Z,23.42
2022-11-10T01:03:55.111Z,25.38
2022-11-10T01:07:19.698Z,23.27
2022-11-10T01:10:44.011Z,24.98
2022-11-10T01:14:08.724Z,24.23
2022-11-10T01:17:32.925Z,24.38
2022-11-10T01:20:57.451Z,24.13
2022-11-10T01:24:22.229Z,23.63
2022-11-10T01:27:46.268Z,23.50
2022-11-10T01:31:16.555Z,25.48
2022-11-10T01:34:40.611Z,22.73
2022-11-10T01:38:04.780Z,24.00
2022-11-10T01:41:29.018Z,24.55
2022-11-10T01:45:23.593Z,25.63
2022-11-10T01:48:59.542Z,25.20
2022-11-10T01:52:24.296Z,25.73
2022-11-10T01:55:49.683Z,24.58
2022-11-10T01:59:19.186Z,24.77
2022-11-10T02:03:01.630Z,24.60
2022-11-10T02:06:30.081Z,25.67
2022-11-10T02:09:54.696Z,24.33
2022-11-10T02:13:19.118Z,24.05
2022-11-10T02:16:44.201Z,26.30
2022-11-10T02:20:12.395Z,27.15
2022-11-10T02:23:36.605Z,27.27
2022-11-10T02:27:01.504Z,26.08
2022-11-10T02:30:27.821Z,25.75
2022-11-10T02:33:51.977Z,27.58
2022-11-10T02:37:16.680Z,26.83
2022-11-10T02:40:41.776Z,28.52
2022-11-10T02:44:08.060Z,27.92
2022-11-10T02:47:32.547Z,26.98
2022-11-10T02:50:57.058Z,25.55
2022-11-10T02:54:22.281Z,28.80
2022-11-10T02:57:46.577Z,27.27
2022-11-10T03:01:10.822Z,26.02
2022-11-10T03:04:35.423Z,26.30
2022-11-10T03:08:02.671Z,26.80
2022-11-10T03:11:31.971Z,28.23
2022-11-10T03:14:56.736Z,27.73
2022-11-10T03:18:21.288Z,28.35
2022-11-10T03:21:45.451Z,26.50
2022-11-10T03:25:11.306Z,27.55
2022-11-10T03:28:35.802Z,26.50
2022-11-10T03:32:00.043Z,26.88
2022-11-10T03:35:24.580Z,28.02
2022-11-10T03:38:48.601Z,27.25
2022-11-10T03:42:13.012Z,27.42
2022-11-10T03:45:37.918Z,27.50
2022-11-10T03:49:02.159Z,26.08
2022-11-10T03:52:26.838Z,27.48
2022-11-10T03:55:50.462Z,27.10
2022-11-10T03:59:15.091Z,26.88
2022-11-10T04:02:40.365Z,27.95
2022-11-10T04:06:23.204Z,27.50
2022-11-10T04:09:48.024Z,27.45
2022-11-10T04:13:32.340Z,29.33
2022-11-10T04:16:57.834Z,27.23
2022-11-10T04:20:22.504Z,27.65
2022-11-10T04:23:47.046Z,28.08
2022-11-10T04:27:11.857Z,30.58
2022-11-10T04:30:36.196Z,28.70
2022-11-10T04:34:01.067Z,28.13
2022-11-10T04:37:25.865Z,29.13
2022-11-10T04:40:50.567Z,30.33
2022-11-10T04:44:14.696Z,28.38
2022-11-10T04:47:39.219Z,27.70
2022-11-10T04:51:06.618Z,27.23
2022-11-10T04:54:31.231Z,26.27
2022-11-10T04:57:55.158Z,27.55
2022-11-10T05:01:23.612Z,27.38
2022-11-10T05:04:47.980Z,26.58
2022-11-10T05:08:12.888Z,28.73
2022-11-10T05:11:37.489Z,26.85
2022-11-10T05:15:01.947Z,28.77
2022-11-10T05:18:27.160Z,27.08
2022-11-10T05:21:51.595Z,29.52
2022-11-10T05:25:16.345Z,30.60
2022-11-10T05:28:42.935Z,28.25
2022-11-10T05:32:07.745Z,32.47
2022-11-10T05:35:33.558Z,30.20
2022-11-10T05:38:58.288Z,30.33
2022-11-10T05:42:22.749Z,31.85
2022-11-10T05:45:47.115Z,32.50
2022-11-10T05:49:11.720Z,33.38
2022-11-10T05:52:36.619Z,36.25
2022-11-10T05:56:01.755Z,41.88
2022-11-10T05:59:26.106Z,44.22
2022-11-10T06:03:21.560Z,44.70
2022-11-10T06:06:46.262Z,48.70
2022-11-10T06:10:10.716Z,50.90
2022-11-10T06:13:35.351Z,52.13
2022-11-10T06:16:59.944Z,48.65
2022-11-10T06:20:25.127Z,50.20
2022-11-10T06:23:49.547Z,49.67
2022-11-10T06:27:14.144Z,50.40
2022-11-10T06:30:39.390Z,52.22
2022-11-10T06:34:04.008Z,51.65
2022-11-10T06:37:28.541Z,51.15
2022-11-10T06:40:52.959Z,51.80
2022-11-10T06:44:20.414Z,53.42
2022-11-10T06:47:45.123Z,52.10
2022-11-10T06:51:09.176Z,50.63
2022-11-10T06:54:33.464Z,52.15
2022-11-10T06:57:58.484Z,49.92
2022-11-10T07:01:26.821Z,50.05
2022-11-10T07:04:51.532Z,49.22
2022-11-10T07:08:16.827Z,48.03
2022-11-10T07:11:41.178Z,49.38
2022-11-10T07:15:06.140Z,49.70
2022-11-10T07:18:30.728Z,49.22
2022-11-10T07:21:55.752Z,46.45
2022-11-10T07:25:20.036Z,50.38
2022-11-10T07:28:44.334Z,46.35
2022-11-10T07:32:09.001Z,45.83
2022-11-10T07:35:34.851Z,44.92
2022-11-10T07:38:59.466Z,43.63
2022-11-10T07:42:24.156Z,44.15
2022-11-10T07:45:51.106Z,46.13
2022-11-10T07:49:15.435Z,44.67
2022-11-10T07:52:40.233Z,43.95
2022-11-10T07:56:04.493Z,42.90
2022-11-10T07:59:29.148Z,43.40
2022-11-10T08:02:54.274Z,46.45
2022-11-10T08:06:19.294Z,39.30
2022-11-10T08:09:44.540Z,43.83
2022-11-10T08:13:10.843Z,44.80
2022-11-10T08:16:34.609Z,43.88
2022-11-10T08:19:58.480Z,43.58
2022-11-10T08:23:22.661Z,43.78
2022-11-10T08:26:47.860Z,47.47
2022-11-10T08:30:13.168Z,48.25
2022-11-10T08:33:37.332Z,48.53
2022-11-10T08:37:01.439Z,48.10
2022-11-10T08:40:29.345Z,50.65
2022-11-10T08:43:53.274Z,47.50
2022-11-10T08:47:17.742Z,46.15
2022-11-10T08:50:43.044Z,45.40
2022-11-10T08:54:07.455Z,43.55
2022-11-10T08:57:31.514Z,44.80
2022-11-10T09:00:57.390Z,43.72
2022-11-10T09:04:21.495Z,42.40
2022-11-10T09:07:47.633Z,43.20
2022-11-10T09:11:11.591Z,42.00
2022-11-10T09:14:36.624Z,43.55
2022-11-10T09:18:02.041Z,43.72
2022-11-10T09:21:26.539Z,43.75
2022-11-10T09:24:50.537Z,44.72
2022-11-10T09:28:17.122Z,45.90
2022-11-10T09:31:45.053Z,44.30
2022-11-10T09:35:09.004Z,44.28
2022-11-10T09:38:33.375Z,43.70
2022-11-10T09:41:57.824Z,43.53
2022-11-10T09:45:28.898Z,43.00
2022-11-10T09:49:02.304Z,43.97
2022-11-10T09:52:29.995Z,42.65
2022-11-10T09:56:02.773Z,41.67
2022-11-10T09:59:30.209Z,41.92
2022-11-10T10:03:05.106Z,41.20
2022-11-10T10:06:49.838Z,40.22
2022-11-10T10:10:28.078Z,41.50
2022-11-10T10:14:01.541Z,44.13
2022-11-10T10:17:32.202Z,41.38
2022-11-10T10:21:28.250Z,36.00
2022-11-10T10:24:57.538Z,33.40
2022-11-10T10:28:45.183Z,31.38
2022-11-10T10:32:17.293Z,26.35
2022-11-10T10:39:12.886Z,23.70
2022-11-10T10:42:38.448Z,22.48
2022-11-10T10:46:28.389Z,21.73
2022-11-10T10:50:23.846Z,21.65
2022-11-10T10:53:49.038Z,23.95
2022-11-10T10:57:20.858Z,22.65
2022-11-10T11:00:52.037Z,22.08
2022-11-10T11:04:37.378Z,23.98
2022-11-10T11:08:03.689Z,24.35
2022-11-10T11:11:35.125Z,23.08
2022-11-10T11:15:28.793Z,21.58
2022-11-10T11:18:52.956Z,22.80
2022-11-10T11:22:39.687Z,21.58
2022-11-10T11:26:15.250Z,21.65
2022-11-10T11:30:04.662Z,22.02
2022-11-10T11:33:49.129Z,20.55
2022-11-10T11:37:27.751Z,22.65
2022-11-10T11:41:25.758Z,21.45
2022-11-10T11:45:12.465Z,21.05
2022-11-10T11:48:45.843Z,22.00
2022-11-10T11:52:45.372Z,20.17
2022-11-10T11:56:26.448Z,20.70
2022-11-10T12:00:05.381Z,21.08
2022-11-10T12:03:56.725Z,21.40
2022-11-10T12:07:23.667Z,22.17
2022-11-10T12:11:01.162Z,21.40
2022-11-10T12:15:15.601Z,20.70
2022-11-10T12:19:18.010Z,22.00
2022-11-10T12:23:02.981Z,20.55
2022-11-10T12:26:45.700Z,23.10
2022-11-10T12:30:15.824Z,21.25
2022-11-10T12:33:45.589Z,22.10
2022-11-10T12:37:18.960Z,21.85
2022-11-10T12:40:52.507Z,21.17
2022-11-10T12:44:35.448Z,22.08
2022-11-10T12:48:01.306Z,20.70
2022-11-10T12:51:54.207Z,22.15
2022-11-10T12:55:25.256Z,22.33
2022-11-10T12:58:49.198Z,23.05
2022-11-10T13:02:28.281Z,22.42
2022-11-10T13:05:59.099Z,20.88
2022-11-10T13:09:37.048Z,23.57
2022-11-10T13:13:04.063Z,23.23
2022-11-10T13:16:45.251Z,31.83
2022-11-10T13:20:49.077Z,32.93
2022-11-10T13:24:23.004Z,33.28
2022-11-10T13:27:47.546Z,34.17
2022-11-10T13:31:31.352Z,34.38
2022-11-10T13:35:16.409Z,33.22
2022-11-10T13:38:43.411Z,34.50
2022-11-10T13:42:10.314Z,35.80
2022-11-10T13:45:46.786Z,33.75
2022-11-10T13:49:48.030Z,34.53
2022-11-10T13:53:15.461Z,32.20
2022-11-10T13:57:07.242Z,33.72
2022-11-10T14:00:34.051Z,32.47
2022-11-10T14:04:02.736Z,37.25
2022-11-10T14:07:37.646Z,34.55
2022-11-10T14:11:06.970Z,37.38
2022-11-10T14:14:47.646Z,34.65
2022-11-10T14:18:42.353Z,36.67
2022-11-10T14:22:22.401Z,33.25
2022-11-10T14:26:06.402Z,32.88
2022-11-10T14:29:34.542Z,36.33
2022-11-10T14:33:03.439Z,33.80
2022-11-10T14:36:27.596Z,37.13
2022-11-10T14:40:00.349Z,33.50
2022-11-10T14:43:30.216Z,33.85
2022-11-10T14:46:55.091Z,32.72
2022-11-10T14:50:28.591Z,34.53
2022-11-10T14:53:55.377Z,34.08
2022-11-10T14:57:20.222Z,35.75
2022-11-10T15:00:45.420Z,34.85
2022-11-10T15:04:12.576Z,33.75
2022-11-10T15:07:37.659Z,34.45
2022-11-10T15:11:02.350Z,33.63
2022-11-10T15:14:41.763Z,33.83
2022-11-10T15:18:06.479Z,35.20
2022-11-10T15:21:34.440Z,34.70
2022-11-10T15:25:15.652Z,35.85
2022-11-10T15:28:42.853Z,36.03
2022-11-10T15:32:16.607Z,35.83
2022-11-10T15:35:40.768Z,36.13
2022-11-10T15:39:10.882Z,35.13
2022-11-10T15:42:35.506Z,35.60
2022-11-10T15:46:02.919Z,36.42
2022-11-10T15:49:33.459Z,36.47
2022-11-10T15:52:57.238Z,35.95
2022-11-10T15:56:24.023Z,38.50
2022-11-10T15:59:47.840Z,37.78
2022-11-10T16:03:14.346Z,36.45
2022-11-10T16:06:40.390Z,35.35
2022-11-10T16:10:06.466Z,34.83
2022-11-10T16:13:35.084Z,34.45
2022-11-10T16:16:58.901Z,35.88
2022-11-10T16:20:22.946Z,36.05
2022-11-10T16:23:47.487Z,34.58
2022-11-10T16:27:14.625Z,34.70
2022-11-10T16:30:38.975Z,38.95
2022-11-10T16:34:02.868Z,37.67
2022-11-10T16:37:30.658Z,37.67
2022-11-10T16:40:59.813Z,38.88
2022-11-10T16:44:25.257Z,40.92
2022-11-10T16:47:53.571Z,38.72
2022-11-10T16:51:18.603Z,37.53
2022-11-10T16:54:42.625Z,38.75
2022-11-10T16:58:06.768Z,35.72
2022-11-10T17:01:35.064Z,41.95
2022-11-10T17:04:59.654Z,44.92
2022-11-10T17:08:26.690Z,41.30
2022-11-10T17:11:50.873Z,39.95
2022-11-10T17:15:16.093Z,40.30
2022-11-10T17:18:40.088Z,38.65
2022-11-10T17:22:03.837Z,39.25
2022-11-10T17:25:32.353Z,42.30
2022-11-10T17:28:56.701Z,40.50
2022-11-10T17:32:27.930Z,41.33
2022-11-10T17:36:06.793Z,40.13
2022-11-10T17:39:31.773Z,38.78
2022-11-10T17:42:55.507Z,36.85
2022-11-10T17:46:20.287Z,34.30
2022-11-10T17:49:44.637Z,35.10
2022-11-10T17:53:25.791Z,33.25
2022-11-10T17:56:50.220Z,31.15
2022-11-10T18:00:16.987Z,33.22
2022-11-10T18:03:41.142Z,30.80
2022-11-10T18:07:05.334Z,30.60
2022-11-10T18:10:29.600Z,32.55
2022-11-10T18:13:53.450Z,30.60
2022-11-10T18:17:17.583Z,31.90
2022-11-10T18:20:42.519Z,28.70
2022-11-10T18:24:06.691Z,29.50
2022-11-10T18:27:32.314Z,29.63
2022-11-10T18:30:56.785Z,30.80
2022-11-10T18:34:20.671Z,29.42
2022-11-10T18:37:45.023Z,29.95
2022-11-10T18:41:26.882Z,32.78
2022-11-10T18:44:52.923Z,28.58
2022-11-10T18:48:16.994Z,29.33
2022-11-10T18:51:41.692Z,30.70
2022-11-10T18:55:05.954Z,29.90
2022-11-10T18:58:30.224Z,29.52
2022-11-10T19:01:55.773Z,29.35
2022-11-10T19:05:19.676Z,30.17
2022-11-10T19:08:44.729Z,32.03
2022-11-10T19:12:08.749Z,29.88
2022-11-10T19:15:32.973Z,29.10
2022-11-10T19:18:57.870Z,29.88
2022-11-10T19:22:22.486Z,29.60
2022-11-10T19:25:46.552Z,30.92
2022-11-10T19:29:10.885Z,27.92
2022-11-10T19:32:34.649Z,28.70
2022-11-10T19:36:07.554Z,28.95
2022-11-10T19:39:31.458Z,29.42
2022-11-10T19:42:55.578Z,29.17
2022-11-10T19:46:30.805Z,28.35
2022-11-10T19:49:54.847Z,28.77
2022-11-10T19:53:18.793Z,28.48
2022-11-10T19:56:42.719Z,27.98
2022-11-10T20:00:08.259Z,28.55
2022-11-10T20:03:32.055Z,27.60
2022-11-10T20:07:19.212Z,27.15
2022-11-10T20:10:45.083Z,25.83
2022-11-10T20:14:09.165Z,25.52
2022-11-10T20:17:33.277Z,24.92
2022-11-10T20:21:06.361Z,26.73
2022-11-10T20:24:31.607Z,25.15
2022-11-10T20:27:56.118Z,25.83
2022-11-10T20:31:24.676Z,23.77
2022-11-10T20:34:48.927Z,24.35
2022-11-10T20:38:13.140Z,22.27
2022-11-10T20:41:38.405Z,23.25
2022-11-10T20:45:02.589Z,21.23
2022-11-10T20:48:29.517Z,21.02
2022-11-10T20:51:59.973Z,19.70
2022-11-10T20:55:51.675Z,20.67
2022-11-10T20:59:09.608Z,22.00
2022-11-10T21:02:34.268Z,22.33
2022-11-10T21:05:58.670Z,19.45
2022-11-10T21:09:22.533Z,18.05
2022-11-10T21:12:52.347Z,16.88
2022-11-10T21:16:16.262Z,17.77
2022-11-10T21:19:40.572Z,20.20
2022-11-10T21:23:05.025Z,21.75
2022-11-10T21:26:28.862Z,20.77
2022-11-10T21:29:53.325Z,20.85
2022-11-10T21:33:18.216Z,18.90
2022-11-10T21:36:42.359Z,19.50
2022-11-10T21:40:07.521Z,17.85
2022-11-10T21:43:32.240Z,17.85
2022-11-10T21:46:56.876Z,18.80
2022-11-10T21:50:20.790Z,18.77
2022-11-10T21:53:45.710Z,17.48
2022-11-10T21:57:10.380Z,17.55
2022-11-10T22:00:35.089Z,17.25
2022-11-10T22:03:59.318Z,17.33
2022-11-10T22:07:23.805Z,17.17
2022-11-10T22:11:06.226Z,17.33
2022-11-10T22:14:48.764Z,17.27
2022-11-10T22:18:34.328Z,16.35
2022-11-10T22:22:03.439Z,16.30
2022-11-10T22:25:28.719Z,16.67
2022-11-10T22:28:52.825Z,15.43
2022-11-10T22:32:17.507Z,16.20
2022-11-10T22:35:45.020Z,15.13
2022-11-10T22:39:09.579Z,14.50
2022-11-10T22:42:52.299Z,15.52
2022-11-10T22:46:17.005Z,14.60
2022-11-10T22:49:42.429Z,18.50
2022-11-10T22:53:07.043Z,19.13
2022-11-10T22:56:33.170Z,19.98
2022-11-10T22:59:57.142Z,20.60
2022-11-10T23:03:22.124Z,20.08
2022-11-10T23:06:46.452Z,20.33
2022-11-10T23:10:11.066Z,19.65
2022-11-10T23:13:37.674Z,18.95
2022-11-10T23:17:02.109Z,18.40
2022-11-10T23:20:26.213Z,18.10
2022-11-10T23:23:51.077Z,18.08
2022-11-10T23:27:15.733Z,18.23
2022-11-10T23:30:40.281Z,17.65
2022-11-10T23:34:04.415Z,15.80
2022-11-10T23:37:29.258Z,16.02
2022-11-10T23:40:58.255Z,16.10
2022-11-10T23:44:22.807Z,15.65
2022-11-10T23:47:47.056Z,17.42
2022-11-10T23:51:14.125Z,15.52
2022-11-10T23:54:38.705Z,16.98
2022-11-10T23:58:04.174Z,18.08
